M I D A S
Marine Information and Data Acquisition System
Tripno 885 of the Zeeleeuw from 2005-04-22 07:21:10 to 2005-04-22 12:43:49
Back to CruiseResearch ActivitiesStationsMapUnderway DataData graphs

EquipmentUnitsComment
TimeDGPSUTC
LatitudeDGPSDM.mWGS84
LongitudeDGPSDM.mWGS84
HeadingGyrodeg 
SOGDGPSknotsSpeed over ground
COGDGPSdegCourse over ground
DepthEcho soundermeters200 kHz
Missing or incorrect values are displayed as -999
Navigation data collected by the RV Zeeleeuw from 2005-04-22 07:20:42 to 2005-04-22 12:55:07
Time Latitude Longitude Heading SOG COG Depth
2005-04-22 07:21:47 51°13.611 2°56.037 112.7 4 290 -999
2005-04-22 07:22:47 51°13.648 2°55.915 124.8 5.4 301 -999
2005-04-22 07:23:47 51°13.687 2°55.8 113.6 4.9 294 -999
2005-04-22 07:24:47 51°13.698 2°55.765 68.7 0.4 293 11.4
2005-04-22 07:25:47 51°13.7 2°55.743 23.9 2.5 8 -999
2005-04-22 07:26:47 51°13.773 2°55.684 332 6.8 329 9.2
2005-04-22 07:27:47 51°13.888 2°55.586 338.8 8.5 334 9.2
2005-04-22 07:28:47 51°14.017 2°55.492 340.8 8.1 336 9.1
2005-04-22 07:29:47 51°14.142 2°55.404 340.2 8.6 336 9.8
2005-04-22 07:30:47 51°14.264 2°55.257 320 9.3 315 10.1
2005-04-22 07:31:47 51°14.369 2°55.045 310.9 11.3 306 9.8
2005-04-22 07:32:47 51°14.472 2°54.758 297.7 13.3 291 10
2005-04-22 07:33:46 51°14.476 2°54.396 268.6 14 263 9.9
2005-04-22 07:34:47 51°14.402 2°54.038 251.5 14.3 245 9.2
2005-04-22 07:35:47 51°14.279 2°53.709 243.6 14.5 240 9.1
2005-04-22 07:36:47 51°14.158 2°53.372 243.8 14.6 241 9.2
2005-04-22 07:37:47 51°14.041 2°53.031 244.9 14.7 242 9.6
2005-04-22 07:38:47 51°13.927 2°52.679 246.6 14.8 243 9.9
2005-04-22 07:39:47 51°13.816 2°52.33 246.9 14.8 242 10.2
2005-04-22 07:40:47 51°13.706 2°51.984 245.5 14.7 241 10.2
2005-04-22 07:41:47 51°13.588 2°51.636 244.8 14.8 241 10.5
2005-04-22 07:42:47 51°13.463 2°51.303 241.8 14.8 238 10.6
2005-04-22 07:43:47 51°13.333 2°50.97 241 14.8 238 10.7
2005-04-22 07:44:47 51°13.203 2°50.636 240.8 14.8 239 10.8
2005-04-22 07:45:47 51°13.071 2°50.308 239.7 14.9 237 10.9
2005-04-22 07:46:47 51°12.936 2°49.974 240.7 14.8 236 11
2005-04-22 07:47:47 51°12.806 2°49.643 240.2 14.8 236 11.2
2005-04-22 07:48:47 51°12.672 2°49.309 240.3 14.9 238 11.3
2005-04-22 07:49:47 51°12.541 2°48.98 240.5 14.8 239 11.3
2005-04-22 07:50:47 51°12.408 2°48.646 240.2 14.8 238 11.4
2005-04-22 07:51:47 51°12.279 2°48.319 240.2 14.7 238 11.4
2005-04-22 07:52:47 51°12.149 2°47.989 240.2 14.7 237 11.4
2005-04-22 07:53:47 51°12.018 2°47.657 240.4 14.8 238 11.2
2005-04-22 07:54:47 51°11.889 2°47.332 239.9 14.5 238 11
2005-04-22 07:55:47 51°11.766 2°46.996 244.7 14.5 242 10.7
2005-04-22 07:56:47 51°11.651 2°46.656 244.8 14.7 241 10.6
2005-04-22 07:57:47 51°11.549 2°46.304 250.3 14.7 246 10.8
2005-04-22 07:58:47 51°11.451 2°45.949 249.7 14.7 246 10.7
2005-04-22 07:59:47 51°11.353 2°45.593 250.4 14.5 246 10.7
2005-04-22 08:00:47 51°11.256 2°45.24 249.6 14.5 246 10.7
2005-04-22 08:01:47 51°11.157 2°44.884 249.3 14.6 246 10.5
2005-04-22 08:02:47 51°11.061 2°44.53 249.4 14.6 248 10.4
2005-04-22 08:03:47 51°10.963 2°44.18 249 14.3 245 10.4
2005-04-22 08:04:47 51°10.866 2°43.834 249.2 14.2 246 10.2
2005-04-22 08:05:47 51°10.771 2°43.49 249.2 14.3 247 10.1
2005-04-22 08:06:47 51°10.674 2°43.143 249.3 14.3 246 9.9
2005-04-22 08:07:47 51°10.576 2°42.796 249.6 14.4 246 9.7
2005-04-22 08:08:47 51°10.478 2°42.447 249.6 14.4 246 9.6
2005-04-22 08:09:47 51°10.388 2°42.099 254.8 14.4 252 9.7
2005-04-22 08:10:47 51°10.31 2°41.733 254.3 14.4 250 9.8
2005-04-22 08:11:47 51°10.231 2°41.375 254.7 14.5 250 10
2005-04-22 08:12:47 51°10.153 2°41.008 255 14.4 252 10.2
2005-04-22 08:13:47 51°10.073 2°40.647 254.2 14.5 252 10.5
2005-04-22 08:14:47 51°9.994 2°40.29 252.7 14.3 249 10.6
2005-04-22 08:15:47 51°9.908 2°39.933 252.8 14.4 250 10.7
2005-04-22 08:16:47 51°9.82 2°39.577 252.1 14.4 249 10.7
2005-04-22 08:17:47 51°9.733 2°39.22 252.1 14.5 249 10.9
2005-04-22 08:18:47 51°9.643 2°38.866 250.4 14.4 247 11.1
2005-04-22 08:19:47 51°9.55 2°38.514 249.8 14.4 247 11.2
2005-04-22 08:20:47 51°9.459 2°38.162 250 14.4 248 11.3
2005-04-22 08:21:47 51°9.369 2°37.812 249.8 14.3 247 11.4
2005-04-22 08:22:47 51°9.277 2°37.464 250.6 13.9 248 11.3
2005-04-22 08:23:47 51°9.255 2°37.246 289.9 5.8 285 12
2005-04-22 08:24:47 51°9.28 2°37.171 330.7 1.6 304 12.7
2005-04-22 08:25:47 51°9.277 2°37.155 350.2 0.6 229 12.7
2005-04-22 08:26:47 51°9.272 2°37.143 345.8 0.6 237 12.7
2005-04-22 08:27:47 51°9.267 2°37.132 339.3 0.5 240 12.7
2005-04-22 08:28:47 51°9.263 2°37.12 333.8 0.5 241 12.8
2005-04-22 08:29:47 51°9.259 2°37.108 328.7 0.5 244 12.7
2005-04-22 08:30:47 51°9.255 2°37.096 324.3 0.5 237 12.8
2005-04-22 08:31:47 51°9.25 2°37.084 320.9 0.6 241 12.9
2005-04-22 08:32:47 51°9.246 2°37.073 318.6 0.6 241 12.9
2005-04-22 08:33:47 51°9.242 2°37.062 317.2 0.5 241 12.9
2005-04-22 08:34:47 51°9.238 2°37.052 316.6 0.5 235 12.9
2005-04-22 08:35:47 51°9.234 2°37.043 316.4 0.4 238 12.9
2005-04-22 08:36:47 51°9.231 2°37.036 315.9 0.4 229 12.9
2005-04-22 08:37:47 51°9.226 2°37.027 314.4 0.4 229 12.9
2005-04-22 08:38:47 51°9.222 2°37.02 311.3 0.4 228 12.9
2005-04-22 08:39:47 51°9.219 2°37.012 308.1 0.3 233 12.9
2005-04-22 08:40:47 51°9.216 2°37.005 305.7 0.4 252 12.9
2005-04-22 08:41:47 51°9.222 2°36.981 315.5 1.5 304 13.1
2005-04-22 08:42:47 51°9.247 2°36.951 337.5 2.2 331 13.6
2005-04-22 08:43:47 51°9.284 2°36.935 359 2.4 353 14.2
2005-04-22 08:44:47 51°9.325 2°36.942 20.1 2.6 16 14.8
2005-04-22 08:45:47 51°9.363 2°36.974 42.7 2.6 39 15.4
2005-04-22 08:46:47 51°9.39 2°37.029 65 2.7 62 15.4
2005-04-22 08:47:47 51°9.4 2°37.098 89.1 2.7 86 15.2
2005-04-22 08:48:47 51°9.389 2°37.167 115.6 2.8 112 14.6
2005-04-22 08:49:47 51°9.359 2°37.222 144.2 2.8 144 14.1
2005-04-22 08:50:47 51°9.314 2°37.249 173 3 171 13.4
2005-04-22 08:51:47 51°9.268 2°37.243 198 2.5 192 12.9
2005-04-22 08:52:47 51°9.235 2°37.223 213.9 1.9 208 12.6
2005-04-22 08:53:47 51°9.211 2°37.199 222.6 1.7 215 12.5
2005-04-22 08:54:47 51°9.193 2°37.17 241.4 1.5 235 12.3
2005-04-22 08:55:46 51°9.185 2°37.136 263.5 1.3 259 12.4
2005-04-22 08:56:47 51°9.186 2°37.103 285.7 1.2 282 12.4
2005-04-22 08:57:47 51°9.196 2°37.076 306.6 1.2 311 12.7
2005-04-22 08:58:47 51°9.211 2°37.059 325.3 1.2 331 13
2005-04-22 08:59:47 51°9.231 2°37.05 343.9 1.3 351 13.4
2005-04-22 09:00:47 51°9.252 2°37.05 0.6 1.4 6 13.7
2005-04-22 09:01:47 51°9.276 2°37.062 19.9 1.6 23 14
2005-04-22 09:02:47 51°9.295 2°37.08 31 1.3 35 14.1
2005-04-22 09:03:47 51°9.31 2°37.098 34.9 1 39 14.3
2005-04-22 09:04:47 51°9.323 2°37.115 37.8 1 39 14.4
2005-04-22 09:05:47 51°9.331 2°37.131 40.5 0.9 43 14.4
2005-04-22 09:06:47 51°9.34 2°37.149 43.6 0.8 58 14.6
2005-04-22 09:07:47 51°9.346 2°37.165 45.9 0.7 58 14.6
2005-04-22 09:08:47 51°9.353 2°37.18 47.5 0.7 60 14.7
2005-04-22 09:09:47 51°9.359 2°37.194 47.1 0.7 65 14.7
2005-04-22 09:10:47 51°9.364 2°37.208 47.8 0.6 62 14.7
2005-04-22 09:11:47 51°9.369 2°37.222 48.6 0.6 67 14.7
2005-04-22 09:12:47 51°9.373 2°37.235 47.9 0.6 63 14.7
2005-04-22 09:13:47 51°9.378 2°37.249 44.7 0.6 63 14.7
2005-04-22 09:14:47 51°9.381 2°37.261 39.8 0.4 57 14.8
2005-04-22 09:15:47 51°9.387 2°37.272 33.1 0.5 49 14.8
2005-04-22 09:16:47 51°9.391 2°37.283 24.9 0.6 52 14.9
2005-04-22 09:17:47 51°9.397 2°37.295 17.4 0.6 59 14.9
2005-04-22 09:18:47 51°9.403 2°37.307 10.1 0.6 53 14.9
2005-04-22 09:19:47 51°9.408 2°37.32 2.5 0.6 57 14.9
2005-04-22 09:20:47 51°9.414 2°37.334 355.8 0.6 63 15
2005-04-22 09:21:47 51°9.419 2°37.347 348.8 0.7 64 15
2005-04-22 09:22:47 51°9.426 2°37.363 342.9 0.6 59 15
2005-04-22 09:23:47 51°9.431 2°37.378 338.5 0.7 59 15
2005-04-22 09:24:47 51°9.437 2°37.394 336 0.7 61 15
2005-04-22 09:25:47 51°9.444 2°37.41 334.4 0.7 60 15.1
2005-04-22 09:26:47 51°9.451 2°37.427 334.4 0.7 55 15.2
2005-04-22 09:27:47 51°9.457 2°37.444 335 0.7 60 15.2
2005-04-22 09:28:47 51°9.464 2°37.463 336.7 0.8 60 15.2
2005-04-22 09:29:47 51°9.471 2°37.481 338.8 0.8 57 15.2
2005-04-22 09:30:47 51°9.479 2°37.5 339.9 0.9 59 15.2
2005-04-22 09:31:47 51°9.486 2°37.519 340.9 0.8 58 15.3
2005-04-22 09:32:47 51°9.494 2°37.539 341.7 0.9 63 15.3
2005-04-22 09:33:47 51°9.533 2°37.535 333.6 3.5 346 15.9
2005-04-22 09:34:47 51°9.584 2°37.475 307.6 3.6 319 17.1
2005-04-22 09:35:47 51°9.622 2°37.416 295.3 3.1 312 17.8
2005-04-22 09:36:47 51°9.65 2°37.35 292.4 3.2 304 18.3
2005-04-22 09:37:47 51°9.687 2°37.281 299.9 3.4 313 18.4
2005-04-22 09:38:47 51°9.737 2°37.237 334.5 3.7 353 18.6
2005-04-22 09:39:47 51°9.803 2°37.271 26.1 4.9 30 19
2005-04-22 09:40:47 51°9.863 2°37.365 68.2 5.2 65 19.2
2005-04-22 09:41:47 51°9.862 2°37.488 132.3 4.2 115 19
2005-04-22 09:42:47 51°9.814 2°37.523 200.3 3.1 181 18.8
2005-04-22 09:43:47 51°9.767 2°37.479 229.3 3.6 222 18.6
2005-04-22 09:44:47 51°9.723 2°37.407 231.2 3.8 225 18.5
2005-04-22 09:45:47 51°9.69 2°37.344 240.2 2.7 235 18.6
2005-04-22 09:46:47 51°9.671 2°37.295 244 2.1 240 18.4
2005-04-22 09:47:47 51°9.652 2°37.248 241.2 2.2 236 18.4
2005-04-22 09:48:47 51°9.63 2°37.196 240.8 2.5 237 18.5
2005-04-22 09:49:47 51°9.607 2°37.141 240.1 2.5 235 18.5
2005-04-22 09:50:47 51°9.582 2°37.086 240.2 2.6 234 18.4
2005-04-22 09:51:47 51°9.558 2°37.033 240 2.5 235 18.4
2005-04-22 09:52:47 51°9.533 2°36.981 239.8 2.5 232 18.4
2005-04-22 09:53:46 51°9.511 2°36.927 244.8 2.4 239 18.5
2005-04-22 09:54:47 51°9.492 2°36.872 245.1 2.3 240 18.5
2005-04-22 09:55:47 51°9.471 2°36.82 241.1 2.3 233 18.5
2005-04-22 09:56:47 51°9.448 2°36.771 240.5 2.3 235 18.4
2005-04-22 09:57:47 51°9.426 2°36.723 239.9 2.4 231 18.4
2005-04-22 09:58:47 51°9.404 2°36.676 241.9 2.2 234 18.4
2005-04-22 09:59:47 51°9.383 2°36.627 242.4 2.3 237 18.5
2005-04-22 10:00:47 51°9.362 2°36.576 242.4 2.3 236 18.4
2005-04-22 10:01:47 51°9.341 2°36.525 243.1 2.3 237 18.4
2005-04-22 10:02:47 51°9.324 2°36.471 248.2 2.3 247 18.4
2005-04-22 10:03:47 51°9.309 2°36.416 248.4 2.2 246 18.4
2005-04-22 10:04:47 51°9.293 2°36.361 246.9 2.3 244 18.5
2005-04-22 10:05:47 51°9.276 2°36.308 246.1 2.2 246 18.5
2005-04-22 10:06:47 51°9.259 2°36.254 246.7 2.3 242 18.5
2005-04-22 10:07:47 51°9.242 2°36.199 246.6 2.3 241 18.5
2005-04-22 10:08:48 51°9.224 2°36.145 245.3 2.3 242 18.5
2005-04-22 10:09:47 51°9.206 2°36.091 245.6 2.3 244 18.6
2005-04-22 10:10:47 51°9.187 2°36.038 244.7 2.4 240 18.6
2005-04-22 10:11:47 51°9.168 2°35.983 245.2 2.4 242 18.7
2005-04-22 10:12:47 51°9.15 2°35.928 245.8 2.3 243 18.7
2005-04-22 10:13:47 51°9.131 2°35.873 245.3 2.4 244 18.7
2005-04-22 10:14:47 51°9.111 2°35.82 245.3 2.4 241 18.8
2005-04-22 10:15:47 51°9.091 2°35.768 245.1 2.4 240 18.8
2005-04-22 10:16:47 51°9.072 2°35.715 245.8 2.3 239 19
2005-04-22 10:17:47 51°9.054 2°35.661 247.3 2.2 243 18.9
2005-04-22 10:18:47 51°9.037 2°35.611 247.5 2.1 243 18.9
2005-04-22 10:19:47 51°9.025 2°35.563 254.7 1.9 254 18.9
2005-04-22 10:20:47 51°9.025 2°35.509 266.3 1.9 270 19
2005-04-22 10:21:47 51°9.033 2°35.471 277.7 1.3 304 19
2005-04-22 10:22:47 51°9.048 2°35.451 285.6 1.2 335 18.9
2005-04-22 10:23:47 51°9.065 2°35.445 290.5 1 352 19
2005-04-22 10:24:47 51°9.082 2°35.447 293.7 1 10 19.1
2005-04-22 10:25:47 51°9.098 2°35.456 295.4 1 23 19.1
2005-04-22 10:26:47 51°9.123 2°35.438 299 3.1 315 19
2005-04-22 10:27:47 51°9.196 2°35.415 1.9 5.4 5 19.2
2005-04-22 10:28:47 51°9.261 2°35.543 71.8 6.8 66 19
2005-04-22 10:29:47 51°9.248 2°35.709 135.8 6.7 100 19.2
2005-04-22 10:30:47 51°9.175 2°35.758 200 4.7 178 18.9
2005-04-22 10:31:47 51°9.12 2°35.736 218.1 3 198 18.8
2005-04-22 10:32:47 51°9.082 2°35.699 230.7 2.6 217 18.8
2005-04-22 10:33:47 51°9.052 2°35.652 241 2.5 230 18.9
2005-04-22 10:34:47 51°9.029 2°35.603 239.6 2.3 229 19
2005-04-22 10:35:47 51°9.003 2°35.555 241.3 2.4 230 19
2005-04-22 10:36:47 51°8.978 2°35.505 242.1 2.4 234 18.9
2005-04-22 10:37:47 51°8.953 2°35.453 242 2.4 231 18.9
2005-04-22 10:38:47 51°8.929 2°35.402 243.9 2.4 233 18.8
2005-04-22 10:39:47 51°8.91 2°35.347 247.5 2.3 240 18.9
2005-04-22 10:40:47 51°8.891 2°35.294 245.2 2.3 240 18.9
2005-04-22 10:41:47 51°8.872 2°35.241 247.5 2.3 244 18.9
2005-04-22 10:42:47 51°8.856 2°35.187 251 2.3 247 18.9
2005-04-22 10:43:47 51°8.843 2°35.131 250.8 2.2 248 19.1
2005-04-22 10:44:47 51°8.83 2°35.074 251.2 2.3 249 19.2
2005-04-22 10:45:47 51°8.817 2°35.016 251.1 2.3 252 19.2
2005-04-22 10:46:47 51°8.803 2°34.958 250.8 2.3 248 19.3
2005-04-22 10:47:47 51°8.79 2°34.899 251 2.4 250 19.3
2005-04-22 10:48:47 51°8.777 2°34.841 250.9 2.4 253 19.4
2005-04-22 10:49:48 51°8.765 2°34.781 250.2 2.4 251 19.6
2005-04-22 10:50:47 51°8.751 2°34.722 250.2 2.4 249 19.2
2005-04-22 10:51:47 51°8.738 2°34.662 248.7 2.3 247 19.4
2005-04-22 10:52:47 51°8.718 2°34.609 240.8 2.4 234 19.7
2005-04-22 10:53:47 51°8.695 2°34.56 240.4 2.4 235 19.8
2005-04-22 10:54:47 51°8.672 2°34.508 242.1 2.4 235 19.8
2005-04-22 10:55:47 51°8.65 2°34.454 241.9 2.4 236 19.9
2005-04-22 10:56:47 51°8.629 2°34.4 243.3 2.4 240 19.9
2005-04-22 10:57:47 51°8.611 2°34.344 244.4 2.4 241 19.8
2005-04-22 10:58:47 51°8.594 2°34.289 243.9 2.3 243 19.9
2005-04-22 10:59:47 51°8.577 2°34.231 244.8 2.5 247 19.7
2005-04-22 11:00:47 51°8.563 2°34.169 251.8 2.2 257 19.7
2005-04-22 11:01:47 51°8.563 2°34.124 266.7 1.5 283 19.7
2005-04-22 11:02:47 51°8.575 2°34.095 280.2 1.2 314 19.7
2005-04-22 11:03:47 51°8.593 2°34.079 289.9 1.4 343 19.8
2005-04-22 11:04:47 51°8.615 2°34.075 299.8 1.4 357 19.8
2005-04-22 11:05:47 51°8.636 2°34.047 265.6 1.7 289 19.5
2005-04-22 11:06:47 51°8.613 2°34.032 193.7 2.3 167 19.5
2005-04-22 11:07:47 51°8.582 2°34.107 126.9 4.1 103 19.8
2005-04-22 11:08:47 51°8.594 2°34.216 75.7 4.2 68 19.7
2005-04-22 11:09:47 51°8.627 2°34.308 59.2 4 57 19.8
2005-04-22 11:10:47 51°8.664 2°34.395 58.8 4.1 56 19.7
2005-04-22 11:11:47 51°8.708 2°34.504 59.5 5.2 57 19.8
2005-04-22 11:12:47 51°8.755 2°34.62 60.2 5 57 19.6
2005-04-22 11:13:47 51°8.794 2°34.724 63.5 4.2 59 19.4
2005-04-22 11:14:47 51°8.824 2°34.809 66.7 3.5 62 19.4
2005-04-22 11:15:47 51°8.847 2°34.881 66 2.9 64 19.2
2005-04-22 11:16:47 51°8.867 2°34.945 64.9 2.6 61 19.2
2005-04-22 11:17:47 51°8.886 2°35.004 66.2 2.4 64 19.3
2005-04-22 11:18:47 51°8.904 2°35.061 66.5 2.4 64 19.2
2005-04-22 11:19:47 51°8.922 2°35.123 66.1 2.7 65 19.1
2005-04-22 11:20:47 51°8.942 2°35.189 65.2 2.9 64 19.2
2005-04-22 11:21:47 51°8.964 2°35.258 63.3 3 63 19.2
2005-04-22 11:22:47 51°8.986 2°35.328 64.5 2.9 65 19.1
2005-04-22 11:23:47 51°9.006 2°35.398 67.7 2.9 68 19
2005-04-22 11:24:47 51°9.025 2°35.467 66.8 2.8 67 19
2005-04-22 11:25:47 51°9.043 2°35.533 67.2 2.7 68 19
2005-04-22 11:26:47 51°9.06 2°35.599 68.1 2.7 68 19
2005-04-22 11:27:47 51°9.077 2°35.667 67.3 2.7 68 19
2005-04-22 11:28:47 51°9.094 2°35.73 66.3 2.5 67 18.9
2005-04-22 11:29:47 51°9.11 2°35.791 66.3 2.5 67 18.8
2005-04-22 11:30:47 51°9.126 2°35.852 64.5 2.5 68 18.8
2005-04-22 11:31:47 51°9.143 2°35.912 62.8 2.5 66 18.8
2005-04-22 11:32:47 51°9.16 2°35.973 62.8 2.5 67 18.8
2005-04-22 11:33:47 51°9.176 2°36.033 62.9 2.4 63 18.6
2005-04-22 11:34:47 51°9.193 2°36.093 62.6 2.5 68 18.6
2005-04-22 11:35:47 51°9.211 2°36.156 59.8 2.7 63 18.6
2005-04-22 11:36:47 51°9.23 2°36.22 58.8 2.7 62 18.5
2005-04-22 11:37:47 51°9.249 2°36.285 60.7 2.7 65 18.6
2005-04-22 11:38:47 51°9.268 2°36.349 61.7 2.8 63 18.5
2005-04-22 11:39:47 51°9.286 2°36.414 61.2 2.6 67 18.6
2005-04-22 11:40:47 51°9.305 2°36.477 61.2 2.6 65 18.4
2005-04-22 11:41:47 51°9.322 2°36.54 62.4 2.6 66 18.5
2005-04-22 11:42:47 51°9.345 2°36.61 58.8 3.2 61 18.5
2005-04-22 11:43:47 51°9.375 2°36.706 66.3 4.5 66 18.5
2005-04-22 11:44:47 51°9.403 2°36.824 75.2 5 72 18.4
2005-04-22 11:45:47 51°9.425 2°36.957 82.9 5.3 77 18
2005-04-22 11:46:48 51°9.442 2°37.093 87.3 4.8 79 17.5
2005-04-22 11:47:47 51°9.458 2°37.199 80.7 3.8 75 17.2
2005-04-22 11:48:47 51°9.474 2°37.286 78.8 3.2 73 16.8
2005-04-22 11:49:47 51°9.488 2°37.366 79.7 3.6 77 16.6
2005-04-22 11:50:47 51°9.532 2°37.554 67.5 10.4 63 16.2
2005-04-22 11:51:47 51°9.627 2°37.818 62.6 11.9 60 16.4
2005-04-22 11:52:48 51°9.714 2°38.105 69.3 11.9 66 16.2
2005-04-22 11:53:48 51°9.796 2°38.39 69.1 11.9 65 16.2
2005-04-22 11:54:48 51°9.877 2°38.678 70.6 11.9 67 15.9
2005-04-22 11:55:48 51°9.953 2°38.972 73.3 12 69 15.6
2005-04-22 11:56:48 51°10.023 2°39.27 73.2 12 70 15.5
2005-04-22 11:57:48 51°10.092 2°39.568 74.7 11.9 71 15.2
2005-04-22 11:58:47 51°10.145 2°39.796 66 7.1 64 15.2
2005-04-22 11:59:47 51°10.192 2°39.92 54.1 4.6 57 15.2
2005-04-22 12:00:48 51°10.242 2°40.068 71.6 10.2 67 15.2
2005-04-22 12:01:48 51°10.335 2°40.401 69.3 14.5 65 15
2005-04-22 12:02:48 51°10.432 2°40.754 70.6 14.6 66 14.9
2005-04-22 12:03:48 51°10.528 2°41.112 71.2 14.8 67 14.8
2005-04-22 12:04:47 51°10.622 2°41.469 73.3 14.7 70 14.8
2005-04-22 12:05:48 51°10.702 2°41.84 75.4 14.6 71 14.8
2005-04-22 12:06:47 51°10.781 2°42.203 74.5 14.7 70 14.7
2005-04-22 12:07:48 51°10.861 2°42.573 75.4 14.6 71 14.7
2005-04-22 12:08:48 51°10.941 2°42.94 76.2 14.8 72 14.8
2005-04-22 12:09:48 51°11.017 2°43.312 76.9 14.7 73 14.7
2005-04-22 12:10:48 51°11.093 2°43.681 76.3 14.7 72 14.8
2005-04-22 12:11:48 51°11.17 2°44.05 76 14.8 72 14.9
2005-04-22 12:12:48 51°11.246 2°44.421 76.2 14.8 72 14.7
2005-04-22 12:13:48 51°11.323 2°44.788 76.2 14.5 71 14.6
2005-04-22 12:14:48 51°11.399 2°45.152 76.5 14.5 72 14.7
2005-04-22 12:15:48 51°11.484 2°45.51 70.7 14.3 66 14.5
2005-04-22 12:16:47 51°11.579 2°45.851 70.4 14.4 66 14.7
2005-04-22 12:17:48 51°11.679 2°46.201 70 14.5 65 14.9
2005-04-22 12:18:47 51°11.779 2°46.551 70.1 14.7 66 14.9
2005-04-22 12:19:48 51°11.881 2°46.91 69.6 14.9 65 14.7
2005-04-22 12:20:48 51°11.982 2°47.266 70.2 14.8 66 14.7
2005-04-22 12:21:48 51°12.078 2°47.625 72.6 14.8 68 14.6
2005-04-22 12:22:48 51°12.173 2°47.984 72.5 14.7 67 14.4
2005-04-22 12:23:47 51°12.291 2°48.323 64.9 14.8 60 14.2
2005-04-22 12:24:48 51°12.415 2°48.666 64.2 14.8 60 14.2
2005-04-22 12:25:48 51°12.538 2°49.005 64.2 14.7 60 14.1
2005-04-22 12:26:47 51°12.656 2°49.343 65.8 14.7 60 14
2005-04-22 12:27:47 51°12.777 2°49.684 65.1 14.8 61 13.9
2005-04-22 12:28:48 51°12.899 2°50.028 65.4 14.8 61 13.8
2005-04-22 12:29:48 51°13.02 2°50.374 65.8 14.8 61 13.5
2005-04-22 12:30:48 51°13.139 2°50.713 65.4 14.7 60 13.4
2005-04-22 12:31:47 51°13.258 2°51.05 65.4 14.8 61 13.4
2005-04-22 12:32:48 51°13.38 2°51.394 64.9 14.9 60 13.2
2005-04-22 12:33:48 51°13.504 2°51.74 65.3 15.1 61 13
2005-04-22 12:34:48 51°13.63 2°52.088 65.3 15 60 12.9
2005-04-22 12:35:47 51°13.754 2°52.428 65.1 15.1 59 12.8
2005-04-22 12:36:48 51°13.885 2°52.769 63 15 58 12.6
2005-04-22 12:37:48 51°14.015 2°53.105 63.3 14.9 58 12.3
2005-04-22 12:38:48 51°14.146 2°53.442 62.7 14.9 58 12.1
2005-04-22 12:39:47 51°14.275 2°53.775 63.5 14.9 59 11.9
2005-04-22 12:40:48 51°14.382 2°54.116 76.4 13.6 71 11.8
2005-04-22 12:41:47 51°14.42 2°54.456 94.3 13.1 87 12.3
2005-04-22 12:42:48 51°14.402 2°54.798 105.7 12.6 99 12.6
2005-04-22 12:43:48 51°14.341 2°55.08 122.2 10.2 120 12.9
2005-04-22 12:44:47 51°14.254 2°55.284 133.7 8.7 131 12.9
2005-04-22 12:45:48 51°14.14 2°55.413 155.9 8.3 153 12.6
2005-04-22 12:46:48 51°14.016 2°55.503 158.7 8.2 157 11.9
2005-04-22 12:47:48 51°13.899 2°55.584 159.6 7.5 157 12.1
2005-04-22 12:48:47 51°13.793 2°55.668 151.5 6.3 147 12.1
2005-04-22 12:49:47 51°13.737 2°55.76 130.7 4.3 128 13
2005-04-22 12:50:48 51°13.696 2°55.848 129.5 4 126 11.5
2005-04-22 12:51:48 51°13.647 2°55.948 131.9 4.3 128 11.3
2005-04-22 12:52:48 51°13.62 2°56.027 113.8 2.5 115 11.3
2005-04-22 12:53:48 51°13.607 2°56.08 116.6 1.8 108 9.6
2005-04-22 12:54:47 51°13.599 2°56.107 126.8 0.2 122 9.2